createdAt,value
2022-10-22T00:00:09.338Z,100382.59
2022-10-22T00:03:11.945Z,100426.09
2022-10-22T00:06:14.247Z,100405.22
2022-10-22T00:09:17.214Z,100417.00
2022-10-22T00:12:20.025Z,100419.75
2022-10-22T00:15:22.598Z,100410.22
2022-10-22T00:18:24.803Z,100420.88
2022-10-22T00:21:29.169Z,100425.28
2022-10-22T00:24:32.824Z,100422.50
2022-10-22T00:27:36.759Z,100424.47
2022-10-22T00:30:39.052Z,100403.13
2022-10-22T00:33:41.865Z,100403.94
2022-10-22T00:36:44.363Z,100394.09
2022-10-22T00:39:47.115Z,100387.75
2022-10-22T00:42:49.353Z,100375.56
2022-10-22T00:45:51.810Z,100399.19
2022-10-22T00:48:56.738Z,100393.31
2022-10-22T00:51:59.311Z,100385.72
2022-10-22T00:55:02.084Z,100366.97
2022-10-22T00:58:04.720Z,100391.06
2022-10-22T01:01:13.889Z,100371.94
2022-10-22T01:04:16.999Z,100365.81
2022-10-22T01:07:22.707Z,100387.81
2022-10-22T01:10:37.883Z,100396.06
2022-10-22T01:13:50.245Z,100398.38
2022-10-22T01:17:07.965Z,100392.03
2022-10-22T01:20:21.986Z,100401.59
2022-10-22T01:23:40.843Z,100391.72
2022-10-22T01:27:15.743Z,100396.06
2022-10-22T01:30:19.059Z,100370.72
2022-10-22T01:33:23.701Z,100390.44
2022-10-22T01:36:29.838Z,100395.81
2022-10-22T01:39:34.291Z,100382.59
2022-10-22T01:42:36.733Z,100388.12
2022-10-22T01:45:44.411Z,100405.12
2022-10-22T01:49:15.133Z,100385.22
2022-10-22T01:52:26.125Z,100384.50
2022-10-22T01:56:03.954Z,100369.59
2022-10-22T01:59:30.445Z,100362.34
2022-10-22T02:06:00.342Z,100363.28
2022-10-22T02:09:03.889Z,100339.88
2022-10-22T02:12:08.718Z,100367.88
2022-10-22T02:15:13.448Z,100356.59
2022-10-22T02:18:17.680Z,100362.53
2022-10-22T02:21:20.484Z,100351.81
2022-10-22T02:24:24.229Z,100356.13
2022-10-22T02:27:28.621Z,100372.00
2022-10-22T02:30:32.956Z,100363.94
2022-10-22T02:33:43.445Z,100367.00
2022-10-22T02:36:49.728Z,100389.50
2022-10-22T02:39:54.977Z,100362.31
2022-10-22T02:42:57.573Z,100368.91
2022-10-22T02:45:59.920Z,100357.34
2022-10-22T02:49:02.397Z,100380.47
2022-10-22T02:52:04.735Z,100375.63
2022-10-22T02:55:08.208Z,100381.81
2022-10-22T02:58:11.069Z,100368.63
2022-10-22T03:01:15.434Z,100381.53
2022-10-22T03:04:18.539Z,100386.09
2022-10-22T03:07:21.064Z,100371.16
2022-10-22T03:10:23.256Z,100398.16
2022-10-22T03:13:25.713Z,100397.22
2022-10-22T03:16:27.971Z,100394.66
2022-10-22T03:19:30.483Z,100400.81
2022-10-22T03:22:34.671Z,100386.13
2022-10-22T03:25:40.464Z,100358.66
2022-10-22T03:28:43.182Z,100375.81
2022-10-22T03:31:45.655Z,100379.37
2022-10-22T03:34:48.174Z,100366.66
2022-10-22T03:37:51.110Z,100372.44
2022-10-22T03:40:53.497Z,100336.53
2022-10-22T03:43:57.396Z,100334.94
2022-10-22T03:47:02.452Z,100341.53
2022-10-22T03:50:06.330Z,100311.84
2022-10-22T03:53:10.598Z,100316.16
2022-10-22T03:56:13.861Z,100304.56
2022-10-22T03:59:16.175Z,100345.94
2022-10-22T04:02:18.696Z,100349.53
2022-10-22T04:05:21.181Z,100351.47
2022-10-22T04:08:23.414Z,100356.50
2022-10-22T04:11:25.888Z,100376.41
2022-10-22T04:14:28.244Z,100381.09
2022-10-22T04:17:40.138Z,100351.53
2022-10-22T04:20:42.627Z,100366.06
2022-10-22T04:23:50.624Z,100358.94
2022-10-22T04:26:56.039Z,100365.09
2022-10-22T04:29:58.954Z,100365.28
2022-10-22T04:33:01.749Z,100365.09
2022-10-22T04:36:12.760Z,100369.00
2022-10-22T04:39:15.365Z,100360.25
2022-10-22T04:42:17.907Z,100344.12
2022-10-22T04:45:21.303Z,100342.50
2022-10-22T04:48:23.811Z,100358.66
2022-10-22T04:51:27.158Z,100358.66
2022-10-22T04:54:32.253Z,100337.34
2022-10-22T04:57:35.486Z,100334.59
2022-10-22T05:00:38.044Z,100342.50
2022-10-22T05:03:41.081Z,100343.84
2022-10-22T05:06:44.692Z,100345.75
2022-10-22T05:09:46.953Z,100324.72
2022-10-22T05:12:49.528Z,100351.91
2022-10-22T05:15:52.219Z,100361.28
2022-10-22T05:18:54.922Z,100344.00
2022-10-22T05:22:00.537Z,100333.50
2022-10-22T05:25:03.073Z,100337.53
2022-10-22T05:28:06.636Z,100358.72
2022-10-22T05:31:11.987Z,100335.72
2022-10-22T05:34:14.460Z,100344.81
2022-10-22T05:37:17.023Z,100361.59
2022-10-22T05:40:30.520Z,100347.06
2022-10-22T05:43:34.738Z,100375.63
2022-10-22T05:46:36.929Z,100346.53
2022-10-22T05:49:39.424Z,100337.97
2022-10-22T05:52:41.870Z,100360.06
2022-10-22T05:55:45.421Z,100367.00
2022-10-22T05:58:48.429Z,100365.53
2022-10-22T06:01:51.137Z,100360.19
2022-10-22T06:04:53.684Z,100368.75
2022-10-22T06:07:57.567Z,100386.66
2022-10-22T06:11:00.941Z,100372.63
2022-10-22T06:14:04.240Z,100385.50
2022-10-22T06:17:06.820Z,100392.75
2022-10-22T06:20:09.981Z,100385.50
2022-10-22T06:23:12.566Z,100400.31
2022-10-22T06:26:15.665Z,100405.16
2022-10-22T06:29:18.699Z,100371.97
2022-10-22T06:32:21.701Z,100396.19
2022-10-22T06:35:24.203Z,100391.34
2022-10-22T06:38:26.407Z,100389.81
2022-10-22T06:41:32.998Z,100404.81
2022-10-22T06:44:35.499Z,100394.56
2022-10-22T06:47:38.334Z,100404.16
2022-10-22T06:50:41.486Z,100407.53
2022-10-22T06:53:44.037Z,100422.16
2022-10-22T06:56:46.253Z,100409.66
2022-10-22T06:59:48.739Z,100409.78
2022-10-22T07:02:56.433Z,100399.94
2022-10-22T07:06:03.452Z,100391.56
2022-10-22T07:09:05.622Z,100387.34
2022-10-22T07:12:08.122Z,100407.38
2022-10-22T07:15:11.271Z,100409.09
2022-10-22T07:18:13.787Z,100415.56
2022-10-22T07:21:18.632Z,100391.06
2022-10-22T07:24:21.169Z,100407.44
2022-10-22T07:27:23.413Z,100381.75
2022-10-22T07:30:25.888Z,100406.25
2022-10-22T07:33:28.155Z,100406.25
2022-10-22T07:36:30.659Z,100397.97
2022-10-22T07:39:32.950Z,100402.66
2022-10-22T07:42:35.633Z,100394.00
2022-10-22T07:45:37.853Z,100401.47
2022-10-22T07:48:40.407Z,100384.66
2022-10-22T07:51:44.916Z,100402.84
2022-10-22T07:54:48.931Z,100405.16
2022-10-22T07:57:51.151Z,100405.00
2022-10-22T08:00:58.227Z,100409.59
2022-10-22T08:04:00.779Z,100420.75
2022-10-22T08:07:03.235Z,100405.84
2022-10-22T08:10:06.411Z,100421.91
2022-10-22T08:13:08.801Z,100392.63
2022-10-22T08:16:11.564Z,100417.91
2022-10-22T08:19:18.719Z,100401.12
2022-10-22T08:22:21.223Z,100399.66
2022-10-22T08:25:23.477Z,100390.72
2022-10-22T08:28:28.511Z,100392.19
2022-10-22T08:31:30.902Z,100403.94
2022-10-22T08:34:35.437Z,100394.22
2022-10-22T08:37:37.709Z,100411.97
2022-10-22T08:40:43.587Z,100400.88
2022-10-22T08:44:43.328Z,100411.13
2022-10-22T08:48:11.790Z,100426.72
2022-10-22T08:51:20.899Z,100419.72
2022-10-22T08:54:48.552Z,100417.59
2022-10-22T08:57:56.277Z,100400.34
2022-10-22T09:01:11.018Z,100414.53
2022-10-22T09:04:25.525Z,100399.59
2022-10-22T09:07:28.260Z,100408.16
2022-10-22T09:10:36.861Z,100398.41
2022-10-22T09:13:46.992Z,100394.03
2022-10-22T09:17:14.290Z,100395.22
2022-10-22T09:20:28.711Z,100419.66
2022-10-22T09:23:37.137Z,100416.28
2022-10-22T09:26:41.092Z,100418.62
2022-10-22T09:29:44.414Z,100387.78
2022-10-22T09:32:50.742Z,100407.34
2022-10-22T09:36:06.913Z,100405.78
2022-10-22T09:39:32.093Z,100420.37
2022-10-22T09:42:35.005Z,100422.03
2022-10-22T09:45:37.469Z,100407.53
2022-10-22T09:48:42.805Z,100428.75
2022-10-22T09:51:52.018Z,100423.94
2022-10-22T09:54:54.357Z,100427.88
2022-10-22T09:58:00.317Z,100414.38
2022-10-22T10:01:02.571Z,100403.84
2022-10-22T10:04:09.884Z,100392.16
2022-10-22T10:07:27.467Z,100417.09
2022-10-22T10:10:34.853Z,100406.75
2022-10-22T10:13:55.667Z,100410.84
2022-10-22T10:17:06.609Z,100392.25
2022-10-22T10:20:27.595Z,100389.53
2022-10-22T10:23:44.210Z,100396.53
2022-10-22T10:27:09.380Z,100397.56
2022-10-22T10:30:16.789Z,100378.03
2022-10-22T10:33:37.155Z,100402.38
2022-10-22T10:36:50.778Z,100384.41
2022-10-22T10:40:05.170Z,100397.66
2022-10-22T10:43:15.457Z,100394.88
2022-10-22T10:46:25.452Z,100398.16
2022-10-22T10:49:33.276Z,100399.75
2022-10-22T10:53:18.789Z,100405.50
2022-10-22T10:56:21.798Z,100410.41
2022-10-22T10:59:39.650Z,100410.19
2022-10-22T11:03:44.701Z,100413.81
2022-10-22T11:06:47.052Z,100425.69
2022-10-22T11:10:36.819Z,100419.03
2022-10-22T11:13:43.585Z,100388.06
2022-10-22T11:17:06.213Z,100410.53
2022-10-22T11:20:28.502Z,100408.22
2022-10-22T11:23:41.607Z,100392.63
2022-10-22T11:27:21.592Z,100398.69
2022-10-22T11:30:28.362Z,100388.31
2022-10-22T11:33:39.656Z,100369.88
2022-10-22T11:36:43.642Z,100368.75
2022-10-22T11:39:56.989Z,100358.81
2022-10-22T11:43:07.808Z,100368.63
2022-10-22T11:46:15.990Z,100373.56
2022-10-22T11:49:24.300Z,100358.75
2022-10-22T11:52:39.149Z,100360.22
2022-10-22T11:55:51.711Z,100358.44
2022-10-22T11:58:55.758Z,100369.34
2022-10-22T12:01:58.411Z,100343.91
2022-10-22T12:05:22.597Z,100366.06
2022-10-22T12:08:27.019Z,100370.56
2022-10-22T12:11:39.432Z,100363.59
2022-10-22T12:14:57.769Z,100357.41
2022-10-22T12:18:02.494Z,100312.47
2022-10-22T12:21:05.179Z,100357.41
2022-10-22T12:24:19.780Z,100352.63
2022-10-22T12:27:27.958Z,100353.34
2022-10-22T12:30:35.241Z,100351.31
2022-10-22T12:33:41.142Z,100318.87
2022-10-22T12:36:44.663Z,100334.34
2022-10-22T12:39:47.280Z,100318.16
2022-10-22T12:43:02.729Z,100312.47
2022-10-22T12:46:13.702Z,100337.53
2022-10-22T12:49:22.542Z,100285.38
2022-10-22T12:52:25.870Z,100320.47
2022-10-22T12:55:33.793Z,100331.47
2022-10-22T12:58:49.456Z,100346.59
2022-10-22T13:01:53.198Z,100344.44
2022-10-22T13:05:22.262Z,100341.59
2022-10-22T13:08:29.257Z,100349.44
2022-10-22T13:11:39.923Z,100336.47
2022-10-22T13:14:46.668Z,100356.41
2022-10-22T13:17:49.977Z,100338.87
2022-10-22T13:21:37.806Z,100340.41
2022-10-22T13:24:49.753Z,100340.38
2022-10-22T13:28:01.565Z,100342.63
2022-10-22T13:31:23.763Z,100333.72
2022-10-22T13:34:27.102Z,100341.66
2022-10-22T13:37:32.318Z,100337.75
2022-10-22T13:40:34.908Z,100324.47
2022-10-22T13:43:37.156Z,100344.09
2022-10-22T13:46:42.933Z,100323.34
2022-10-22T13:49:46.832Z,100350.06
2022-10-22T13:52:57.927Z,100335.63
2022-10-22T13:56:00.137Z,100355.63
2022-10-22T13:59:02.763Z,100351.19
2022-10-22T14:02:11.874Z,100344.53
2022-10-22T14:05:16.034Z,100337.38
2022-10-22T14:08:22.256Z,100345.28
2022-10-22T14:11:27.276Z,100362.94
2022-10-22T14:14:29.551Z,100362.50
2022-10-22T14:17:32.372Z,100358.13
2022-10-22T14:20:37.845Z,100364.41
2022-10-22T14:23:41.711Z,100376.22
2022-10-22T14:26:43.993Z,100372.31
2022-10-22T14:29:46.505Z,100341.47
2022-10-22T14:32:49.409Z,100353.16
2022-10-22T14:35:52.102Z,100352.28
2022-10-22T14:38:54.361Z,100334.91
2022-10-22T14:41:56.894Z,100325.78
2022-10-22T14:44:59.164Z,100349.37
2022-10-22T14:48:01.989Z,100342.78
2022-10-22T14:51:04.334Z,100351.56
2022-10-22T14:54:06.889Z,100364.25
2022-10-22T14:57:11.388Z,100360.88
2022-10-22T15:00:18.708Z,100347.59
2022-10-22T15:03:20.943Z,100372.28
2022-10-22T15:06:23.651Z,100356.00
2022-10-22T15:09:25.974Z,100366.59
2022-10-22T15:12:28.476Z,100352.09
2022-10-22T15:15:34.274Z,100349.13
2022-10-22T15:18:42.014Z,100360.69
2022-10-22T15:21:44.315Z,100366.94
2022-10-22T15:24:50.825Z,100350.06
2022-10-22T15:27:54.930Z,100386.69
2022-10-22T15:31:02.160Z,100381.09
2022-10-22T15:34:04.342Z,100360.91
2022-10-22T15:37:12.323Z,100382.44
2022-10-22T15:40:14.638Z,100353.13
2022-10-22T15:43:17.334Z,100373.50
2022-10-22T15:46:19.877Z,100364.06
2022-10-22T15:49:24.020Z,100361.91
2022-10-22T15:52:26.309Z,100374.25
2022-10-22T15:55:28.845Z,100381.75
2022-10-22T15:58:31.623Z,100390.78
2022-10-22T16:01:35.328Z,100405.25
2022-10-22T16:04:38.163Z,100384.16
2022-10-22T16:07:40.618Z,100427.97
2022-10-22T16:10:48.517Z,100430.97
2022-10-22T16:13:56.343Z,100440.72
2022-10-22T16:16:59.724Z,100435.41
2022-10-22T16:20:02.087Z,100417.63
2022-10-22T16:23:04.668Z,100430.22
2022-10-22T16:26:09.393Z,100439.78
2022-10-22T16:29:12.718Z,100445.69
2022-10-22T16:32:18.216Z,100451.69
2022-10-22T16:35:21.346Z,100471.31
2022-10-22T16:38:23.672Z,100484.47
2022-10-22T16:41:26.393Z,100467.91
2022-10-22T16:44:29.812Z,100483.78
2022-10-22T16:47:32.450Z,100504.34
2022-10-22T16:50:34.984Z,100504.09
2022-10-22T16:53:37.567Z,100510.34
2022-10-22T16:56:44.279Z,100517.38
2022-10-22T16:59:49.980Z,100510.56
2022-10-22T17:02:53.960Z,100511.25
2022-10-22T17:05:58.589Z,100516.13
2022-10-22T17:09:01.073Z,100516.13
2022-10-22T17:12:04.067Z,100467.06
2022-10-22T17:15:08.475Z,100510.03
2022-10-22T17:18:12.171Z,100440.81
2022-10-22T17:21:15.171Z,100496.78
2022-10-22T17:24:18.322Z,100454.63
2022-10-22T17:27:20.575Z,100486.88
2022-10-22T17:30:27.262Z,100489.88
2022-10-22T17:33:30.063Z,100480.44
2022-10-22T17:36:35.673Z,100508.78
2022-10-22T17:39:38.677Z,100502.19
2022-10-22T17:42:41.546Z,100504.50
2022-10-22T17:45:44.008Z,100526.84
2022-10-22T17:48:58.357Z,100507.25
2022-10-22T17:55:09.039Z,100526.94
2022-10-22T17:58:11.303Z,100549.75
2022-10-22T18:01:21.584Z,100540.66
2022-10-22T18:04:24.275Z,100513.22
2022-10-22T18:07:26.511Z,100544.34
2022-10-22T18:10:29.852Z,100553.75
2022-10-22T18:13:33.109Z,100529.19
2022-10-22T18:16:35.763Z,100538.28
2022-10-22T18:19:38.126Z,100562.94
2022-10-22T18:22:42.235Z,100561.19
2022-10-22T18:25:44.694Z,100562.34
2022-10-22T18:28:49.269Z,100561.41
2022-10-22T18:31:52.480Z,100533.06
2022-10-22T18:34:54.981Z,100576.81
2022-10-22T18:37:57.320Z,100575.56
2022-10-22T18:41:00.248Z,100555.16
2022-10-22T18:44:05.425Z,100564.59
2022-10-22T18:47:08.694Z,100604.44
2022-10-22T18:50:10.970Z,100529.72
2022-10-22T18:53:15.146Z,100592.72
2022-10-22T18:56:17.584Z,100573.38
2022-10-22T18:59:23.157Z,100601.47
2022-10-22T19:02:25.539Z,100583.28
2022-10-22T19:05:28.060Z,100581.97
2022-10-22T19:08:30.374Z,100564.19
2022-10-22T19:11:32.994Z,100609.69
2022-10-22T19:14:36.649Z,100607.28
2022-10-22T19:17:39.255Z,100600.94
2022-10-22T19:20:41.858Z,100602.44
2022-10-22T19:26:53.217Z,100592.22
2022-10-22T19:29:55.766Z,100592.87
2022-10-22T19:32:58.042Z,100614.31
2022-10-22T19:36:19.601Z,100617.28
2022-10-22T19:39:21.871Z,100622.56
2022-10-22T19:42:24.434Z,100629.41
2022-10-22T19:45:26.758Z,100614.62
2022-10-22T19:48:29.838Z,100650.16
2022-10-22T19:51:34.465Z,100639.53
2022-10-22T19:54:40.837Z,100648.78
2022-10-22T19:57:43.430Z,100644.63
2022-10-22T20:00:46.599Z,100639.00
2022-10-22T20:03:51.155Z,100646.34
2022-10-22T20:06:58.853Z,100655.09
2022-10-22T20:10:01.453Z,100661.28
2022-10-22T20:13:04.172Z,100663.44
2022-10-22T20:16:06.953Z,100652.81
2022-10-22T20:19:11.102Z,100667.53
2022-10-22T20:22:16.294Z,100659.31
2022-10-22T20:25:20.976Z,100682.50
2022-10-22T20:28:23.583Z,100683.81
2022-10-22T20:31:28.533Z,100688.66
2022-10-22T20:34:31.377Z,100679.25
2022-10-22T20:37:34.633Z,100680.72
2022-10-22T20:40:37.159Z,100664.88
2022-10-22T20:43:39.440Z,100681.37
2022-10-22T20:46:42.358Z,100673.44
2022-10-22T20:49:44.695Z,100672.47
2022-10-22T20:52:48.102Z,100693.84
2022-10-22T20:55:53.550Z,100681.25
2022-10-22T20:59:08.339Z,100704.56
2022-10-22T21:02:11.188Z,100705.22
2022-10-22T21:05:13.834Z,100698.44
2022-10-22T21:08:18.652Z,100694.06
2022-10-22T21:11:23.184Z,100709.47
2022-10-22T21:14:25.781Z,100691.19
2022-10-22T21:17:28.397Z,100687.91
2022-10-22T21:20:30.861Z,100680.16
2022-10-22T21:23:34.821Z,100699.47
2022-10-22T21:26:39.048Z,100688.75
2022-10-22T21:29:41.591Z,100688.63
2022-10-22T21:32:44.431Z,100705.31
2022-10-22T21:35:53.152Z,100701.44
2022-10-22T21:38:55.767Z,100689.47
2022-10-22T21:41:58.330Z,100692.38
2022-10-22T21:45:00.627Z,100691.25
2022-10-22T21:48:04.740Z,100686.84
2022-10-22T21:51:12.783Z,100706.94
2022-10-22T21:54:15.264Z,100676.66
2022-10-22T21:57:17.483Z,100702.06
2022-10-22T22:00:21.947Z,100669.03
2022-10-22T22:03:24.789Z,100694.44
2022-10-22T22:06:32.208Z,100697.34
2022-10-22T22:09:35.977Z,100679.56
2022-10-22T22:12:38.595Z,100700.94
2022-10-22T22:15:40.838Z,100706.91
2022-10-22T22:18:43.621Z,100686.81
2022-10-22T22:21:45.827Z,100678.56
2022-10-22T22:24:48.641Z,100704.63
2022-10-22T22:27:50.847Z,100704.16
2022-10-22T22:30:53.320Z,100715.84
2022-10-22T22:34:12.780Z,100706.28
2022-10-22T22:37:15.281Z,100729.16
2022-10-22T22:40:17.606Z,100734.16
2022-10-22T22:43:20.179Z,100715.88
2022-10-22T22:46:22.557Z,100714.75
2022-10-22T22:49:25.057Z,100726.88
2022-10-22T22:52:27.268Z,100724.59
2022-10-22T22:55:32.030Z,100740.94
2022-10-22T22:58:35.126Z,100735.94
2022-10-22T23:01:41.284Z,100751.66
2022-10-22T23:04:43.546Z,100752.50
2022-10-22T23:07:46.030Z,100752.50
2022-10-22T23:10:49.318Z,100749.03
2022-10-22T23:14:03.697Z,100735.13
2022-10-22T23:17:05.971Z,100755.34
2022-10-22T23:20:09.082Z,100752.94
2022-10-22T23:23:11.280Z,100761.88
2022-10-22T23:26:20.080Z,100745.19
2022-10-22T23:29:24.949Z,100742.91
2022-10-22T23:32:27.596Z,100764.62
2022-10-22T23:35:30.179Z,100752.63
2022-10-22T23:38:34.108Z,100763.81
2022-10-22T23:41:37.225Z,100746.81
2022-10-22T23:44:39.857Z,100769.78
2022-10-22T23:47:42.444Z,100767.84
2022-10-22T23:50:45.808Z,100750.84
2022-10-22T23:53:55.109Z,100749.22
2022-10-22T23:56:57.746Z,100739.81
2022-10-22T23:59:59.985Z,100766.22
